createdAt,value
2018-03-28T00:02:07.300Z,93102.72
2018-03-28T00:04:36.256Z,93103.91
2018-03-28T00:07:05.002Z,93107.11
2018-03-28T00:09:33.331Z,93099.97
2018-03-28T00:12:03.877Z,93102.66
2018-03-28T00:14:34.133Z,93096.21
2018-03-28T00:17:04.489Z,93095.25
2018-03-28T00:19:35.056Z,93080.80
2018-03-28T00:22:05.203Z,93078.02
2018-03-28T00:24:33.607Z,93078.52
2018-03-28T00:27:02.276Z,93069.78
2018-03-28T00:29:32.693Z,93069.61
2018-03-28T00:32:01.066Z,93068.48
2018-03-28T00:34:29.474Z,93062.38
2018-03-28T00:36:57.859Z,93062.26
2018-03-28T00:39:26.221Z,93065.23
2018-03-28T00:41:54.618Z,93064.28
2018-03-28T00:44:23.039Z,93066.48
2018-03-28T00:46:55.703Z,93070.30
2018-03-28T00:49:24.085Z,93054.28
2018-03-28T00:51:52.477Z,93056.64
2018-03-28T00:54:20.971Z,93054.81
2018-03-28T00:56:49.348Z,93054.33
2018-03-28T00:59:17.703Z,93055.34
2018-03-28T01:01:46.113Z,93053.11
2018-03-28T01:04:14.535Z,93047.66
2018-03-28T01:06:47.079Z,93054.09
2018-03-28T01:09:15.473Z,93056.13
2018-03-28T01:11:44.521Z,93054.09
2018-03-28T01:14:12.885Z,93056.02
2018-03-28T01:16:41.271Z,93051.63
2018-03-28T01:19:10.106Z,93050.98
2018-03-28T01:21:38.510Z,93045.66
2018-03-28T01:24:06.875Z,93046.88
2018-03-28T01:26:35.267Z,93047.84
2018-03-28T01:29:04.536Z,93049.06
2018-03-28T01:31:35.023Z,93052.78
2018-03-28T01:34:03.563Z,93049.48
2018-03-28T01:36:34.026Z,93047.63
2018-03-28T01:39:02.457Z,93045.61
2018-03-28T01:41:32.851Z,93050.40
2018-03-28T01:44:03.352Z,93050.87
2018-03-28T01:46:32.477Z,93047.88
2018-03-28T01:49:00.859Z,93048.87
2018-03-28T01:51:29.229Z,93053.65
2018-03-28T01:53:57.714Z,93052.73
2018-03-28T01:56:32.226Z,93051.92
2018-03-28T01:59:00.717Z,93053.67
2018-03-28T02:01:30.170Z,93059.04
2018-03-28T02:03:58.555Z,93058.37
2018-03-28T02:06:26.977Z,93048.77
2018-03-28T02:08:55.399Z,93052.20
2018-03-28T02:11:23.843Z,93055.25
2018-03-28T02:13:54.472Z,93058.84
2018-03-28T02:16:22.885Z,93054.62
2018-03-28T02:18:51.577Z,93054.30
2018-03-28T02:21:21.989Z,93051.84
2018-03-28T02:23:50.384Z,93053.18
2018-03-28T02:26:20.863Z,93050.05
2018-03-28T02:28:49.256Z,93057.63
2018-03-28T02:31:17.693Z,93058.91
2018-03-28T02:33:46.113Z,93054.95
2018-03-28T02:36:14.610Z,93056.19
2018-03-28T02:38:46.530Z,93052.59
2018-03-28T02:41:15.254Z,93064.13
2018-03-28T02:43:43.673Z,93059.34
2018-03-28T02:46:12.111Z,93050.45
2018-03-28T02:48:44.907Z,93050.55
2018-03-28T02:51:14.928Z,93050.37
2018-03-28T02:53:44.927Z,93046.61
2018-03-28T02:56:15.332Z,93050.92
2018-03-28T02:58:51.458Z,93049.61
2018-03-28T03:01:19.870Z,93049.70
2018-03-28T03:03:48.282Z,93059.92
2018-03-28T03:06:16.704Z,93057.86
2018-03-28T03:08:46.834Z,93058.34
2018-03-28T03:11:15.253Z,93050.77
2018-03-28T03:13:43.672Z,93058.08
2018-03-28T03:16:14.328Z,93062.27
2018-03-28T03:18:42.752Z,93052.82
2018-03-28T03:21:11.245Z,93060.52
2018-03-28T03:23:39.672Z,93062.56
2018-03-28T03:26:08.088Z,93062.23
2018-03-28T03:28:38.512Z,93061.09
2018-03-28T03:31:14.269Z,93059.98
2018-03-28T03:33:42.668Z,93062.41
2018-03-28T03:36:11.106Z,93064.70
2018-03-28T03:38:39.531Z,93063.72
2018-03-28T03:41:10.018Z,93059.55
2018-03-28T03:43:38.577Z,93063.70
2018-03-28T03:46:09.080Z,93058.72
2018-03-28T03:48:37.544Z,93066.72
2018-03-28T03:51:05.998Z,93070.13
2018-03-28T03:53:34.445Z,93066.13
2018-03-28T03:56:02.864Z,93066.55
2018-03-28T03:58:31.284Z,93072.41
2018-03-28T04:00:59.733Z,93068.41
2018-03-28T04:03:28.138Z,93064.30
2018-03-28T04:06:00.600Z,93064.49
2018-03-28T04:08:30.573Z,93067.68
2018-03-28T04:11:01.016Z,93068.30
2018-03-28T04:13:30.564Z,93069.11
2018-03-28T04:15:58.973Z,93067.55
2018-03-28T04:18:27.367Z,93068.46
2018-03-28T04:20:56.066Z,93070.98
2018-03-28T04:23:25.960Z,93078.52
2018-03-28T04:25:54.401Z,93075.77
2018-03-28T04:28:22.832Z,93073.72
2018-03-28T04:30:51.315Z,93078.67
2018-03-28T04:33:19.772Z,93075.38
2018-03-28T04:35:50.200Z,93074.73
2018-03-28T04:38:20.101Z,93078.95
2018-03-28T04:40:48.617Z,93081.47
2018-03-28T04:43:24.220Z,93080.36
2018-03-28T04:45:52.734Z,93076.19
2018-03-28T04:48:21.205Z,93074.56
2018-03-28T04:50:49.796Z,93081.56
2018-03-28T04:53:20.109Z,93079.60
2018-03-28T04:55:48.635Z,93079.23
2018-03-28T04:58:17.008Z,93074.91
2018-03-28T05:00:46.897Z,93074.75
2018-03-28T05:03:17.623Z,93077.22
2018-03-28T05:05:45.988Z,93075.20
2018-03-28T05:08:14.393Z,93069.17
2018-03-28T05:10:42.823Z,93063.56
2018-03-28T05:13:11.241Z,93062.58
2018-03-28T05:15:39.702Z,93060.95
2018-03-28T05:18:11.664Z,93065.13
2018-03-28T05:20:41.583Z,93068.83
2018-03-28T05:23:10.017Z,93065.82
2018-03-28T05:25:38.452Z,93064.22
2018-03-28T05:28:08.838Z,93063.13
2018-03-28T05:30:37.240Z,93056.97
2018-03-28T05:33:09.415Z,93056.34
2018-03-28T05:35:37.804Z,93063.09
2018-03-28T05:38:06.293Z,93065.59
2018-03-28T05:40:36.705Z,93066.41
2018-03-28T05:43:05.177Z,93066.47
2018-03-28T05:45:33.623Z,93070.68
2018-03-28T05:48:02.045Z,93065.08
2018-03-28T05:50:30.525Z,93063.56
2018-03-28T05:53:00.468Z,93062.05
2018-03-28T05:55:28.943Z,93070.09
2018-03-28T05:57:57.374Z,93066.12
2018-03-28T06:00:25.810Z,93064.50
2018-03-28T06:02:54.229Z,93064.28
2018-03-28T06:05:22.658Z,93055.56
2018-03-28T06:07:51.094Z,93059.56
2018-03-28T06:10:20.909Z,93062.48
2018-03-28T06:12:53.241Z,93060.96
2018-03-28T06:15:23.216Z,93054.08
2018-03-28T06:17:51.625Z,93050.39
2018-03-28T06:20:20.047Z,93054.92
2018-03-28T06:22:48.497Z,93057.86
2018-03-28T06:25:16.999Z,93048.55
2018-03-28T06:27:45.413Z,93046.75
2018-03-28T06:30:14.127Z,93047.39
2018-03-28T06:32:43.932Z,93045.09
2018-03-28T06:35:12.355Z,93036.31
2018-03-28T06:37:40.791Z,93039.22
2018-03-28T06:40:09.793Z,93033.09
2018-03-28T06:42:38.208Z,93036.61
2018-03-28T06:45:06.650Z,93034.47
2018-03-28T06:47:35.070Z,93039.06
2018-03-28T06:50:03.577Z,93041.33
2018-03-28T06:52:32.051Z,93030.79
2018-03-28T06:55:00.481Z,93032.26
2018-03-28T06:57:30.942Z,93030.36
2018-03-28T06:59:59.449Z,93016.72
2018-03-28T07:02:27.852Z,93020.92
2018-03-28T07:04:56.314Z,93018.98
2018-03-28T07:07:24.712Z,93024.42
2018-03-28T07:09:53.148Z,93017.78
2018-03-28T07:12:22.209Z,93026.02
2018-03-28T07:14:50.611Z,93022.31
2018-03-28T07:17:19.027Z,93015.67
2018-03-28T07:19:47.392Z,93012.80
2018-03-28T07:22:17.172Z,93017.76
2018-03-28T07:24:45.662Z,93011.87
2018-03-28T07:27:14.417Z,93019.58
2018-03-28T07:29:46.633Z,93022.38
2018-03-28T07:32:16.114Z,93017.66
2018-03-28T07:34:44.529Z,93020.20
2018-03-28T07:37:14.389Z,93019.80
2018-03-28T07:39:42.808Z,93020.27
2018-03-28T07:42:12.610Z,93022.50
2018-03-28T07:44:42.373Z,93019.11
2018-03-28T07:47:12.103Z,93020.63
2018-03-28T07:49:40.541Z,93007.91
2018-03-28T07:52:09.314Z,93011.91
2018-03-28T07:54:37.670Z,93010.97
2018-03-28T07:57:06.111Z,93015.34
2018-03-28T07:59:34.549Z,93011.69
2018-03-28T08:02:06.165Z,93016.58
2018-03-28T08:04:34.585Z,93014.25
2018-03-28T08:07:09.168Z,93011.02
2018-03-28T08:09:39.287Z,93024.46
2018-03-28T08:12:08.945Z,93014.11
2018-03-28T08:14:39.244Z,93007.62
2018-03-28T08:17:07.684Z,93003.46
2018-03-28T08:19:37.149Z,93006.13
2018-03-28T08:22:05.632Z,93001.05
2018-03-28T08:24:34.085Z,93003.73
2018-03-28T08:27:03.714Z,92991.64
2018-03-28T08:29:32.202Z,92991.46
2018-03-28T08:32:02.014Z,92977.83
2018-03-28T08:34:30.446Z,92981.59
2018-03-28T08:37:00.351Z,92983.83
2018-03-28T08:39:28.801Z,92978.17
2018-03-28T08:41:57.291Z,92969.14
2018-03-28T08:44:26.824Z,92962.31
2018-03-28T08:46:57.602Z,92973.41
2018-03-28T08:49:27.017Z,92968.08
2018-03-28T08:51:56.928Z,92963.75
2018-03-28T08:54:26.721Z,92976.38
2018-03-28T08:56:56.672Z,92979.25
2018-03-28T08:59:26.431Z,92977.33
2018-03-28T09:01:56.707Z,92982.30
2018-03-28T09:04:25.154Z,92977.80
2018-03-28T09:06:54.566Z,92979.80
2018-03-28T09:09:25.461Z,92979.83
2018-03-28T09:11:54.861Z,92984.75
2018-03-28T09:14:24.154Z,92977.26
2018-03-28T09:16:53.957Z,92977.77
2018-03-28T09:19:23.448Z,92978.74
2018-03-28T09:21:51.869Z,92978.70
2018-03-28T09:24:20.276Z,92984.84
2018-03-28T09:26:48.696Z,92979.73
2018-03-28T09:29:17.128Z,92976.90
2018-03-28T09:31:45.769Z,92977.27
2018-03-28T09:34:14.182Z,92979.77
2018-03-28T09:36:43.590Z,92973.37
2018-03-28T09:39:12.026Z,92971.75
2018-03-28T09:41:41.505Z,92970.48
2018-03-28T09:44:09.921Z,92969.27
2018-03-28T09:46:38.346Z,92970.94
2018-03-28T09:49:08.193Z,92967.51
2018-03-28T09:51:36.617Z,92968.48
2018-03-28T09:54:08.673Z,92963.20
2018-03-28T09:56:37.077Z,92972.22
2018-03-28T09:59:09.280Z,92968.84
2018-03-28T10:01:37.741Z,92969.59
2018-03-28T10:04:12.098Z,92971.40
2018-03-28T10:06:42.311Z,92962.97
2018-03-28T10:09:10.810Z,92970.19
2018-03-28T10:11:39.229Z,92966.20
2018-03-28T10:14:07.701Z,92961.98
2018-03-28T10:16:38.054Z,92951.16
2018-03-28T10:19:06.572Z,92946.98
2018-03-28T10:21:34.989Z,92936.66
2018-03-28T10:24:03.490Z,92933.52
2018-03-28T10:26:31.965Z,92934.58
2018-03-28T10:29:01.908Z,92933.97
2018-03-28T10:31:31.598Z,92934.84
2018-03-28T10:34:00.025Z,92928.37
2018-03-28T10:36:28.495Z,92929.04
2018-03-28T10:39:01.479Z,92918.39
2018-03-28T10:41:29.942Z,92920.05
2018-03-28T10:43:58.374Z,92922.63
2018-03-28T10:46:29.424Z,92915.52
2018-03-28T10:48:57.879Z,92916.94
2018-03-28T10:51:26.294Z,92908.56
2018-03-28T10:53:56.358Z,92900.23
2018-03-28T10:56:24.861Z,92897.59
2018-03-28T10:58:53.257Z,92892.38
2018-03-28T11:01:21.688Z,92890.54
2018-03-28T11:03:50.197Z,92882.67
2018-03-28T11:06:18.696Z,92886.06
2018-03-28T11:08:47.126Z,92883.19
2018-03-28T11:11:15.537Z,92870.80
2018-03-28T11:13:43.924Z,92867.58
2018-03-28T11:16:13.562Z,92864.52
2018-03-28T11:18:42.049Z,92866.11
2018-03-28T11:21:11.863Z,92862.53
2018-03-28T11:23:40.414Z,92862.48
2018-03-28T11:26:08.919Z,92853.42
2018-03-28T11:28:37.325Z,92853.72
2018-03-28T11:31:05.822Z,92851.80
2018-03-28T11:33:34.248Z,92840.20
2018-03-28T11:36:03.089Z,92844.97
2018-03-28T11:38:31.554Z,92853.63
2018-03-28T11:41:00.053Z,92838.31
2018-03-28T11:43:29.922Z,92838.00
2018-03-28T11:45:58.426Z,92834.71
2018-03-28T11:48:26.861Z,92825.65
2018-03-28T11:50:55.254Z,92827.72
2018-03-28T11:53:25.029Z,92812.70
2018-03-28T11:55:54.536Z,92804.38
2018-03-28T11:58:23.841Z,92799.78
2018-03-28T12:00:53.566Z,92795.91
2018-03-28T12:03:22.009Z,92789.22
2018-03-28T12:05:50.566Z,92783.98
2018-03-28T12:08:19.006Z,92784.52
2018-03-28T12:10:47.442Z,92779.45
2018-03-28T12:13:17.097Z,92780.47
2018-03-28T12:15:45.575Z,92765.22
2018-03-28T12:18:16.551Z,92762.27
2018-03-28T12:20:45.046Z,92760.81
2018-03-28T12:23:13.490Z,92751.33
2018-03-28T12:25:42.996Z,92747.96
2018-03-28T12:28:11.419Z,92741.12
2018-03-28T12:30:40.034Z,92745.20
2018-03-28T12:33:08.454Z,92746.11
2018-03-28T12:35:36.921Z,92738.31
2018-03-28T12:38:05.380Z,92740.78
2018-03-28T12:40:34.769Z,92736.56
2018-03-28T12:43:04.603Z,92737.34
2018-03-28T12:45:33.062Z,92737.77
2018-03-28T12:48:01.490Z,92731.60
2018-03-28T12:50:31.646Z,92727.89
2018-03-28T12:53:01.139Z,92727.84
2018-03-28T12:55:29.667Z,92732.34
2018-03-28T12:57:59.341Z,92717.95
2018-03-28T13:00:29.320Z,92720.16
2018-03-28T13:02:59.137Z,92710.62
2018-03-28T13:05:27.641Z,92703.64
2018-03-28T13:07:56.142Z,92707.19
2018-03-28T13:10:25.950Z,92704.95
2018-03-28T13:12:54.341Z,92701.11
2018-03-28T13:15:22.761Z,92698.83
2018-03-28T13:17:52.501Z,92699.47
2018-03-28T13:20:20.920Z,92695.05
2018-03-28T13:22:49.337Z,92697.98
2018-03-28T13:25:17.813Z,92690.28
2018-03-28T13:27:46.249Z,92689.10
2018-03-28T13:30:14.681Z,92681.44
2018-03-28T13:32:44.626Z,92679.90
2018-03-28T13:35:16.069Z,92675.97
2018-03-28T13:37:44.500Z,92677.44
2018-03-28T13:40:12.969Z,92676.67
2018-03-28T13:42:41.491Z,92670.95
2018-03-28T13:45:09.986Z,92676.66
2018-03-28T13:47:38.422Z,92673.70
2018-03-28T13:50:08.483Z,92676.25
2018-03-28T13:52:36.917Z,92653.31
2018-03-28T13:55:08.226Z,92654.58
2018-03-28T13:57:36.710Z,92654.44
2018-03-28T14:00:05.304Z,92653.22
2018-03-28T14:02:33.768Z,92639.59
2018-03-28T14:05:02.222Z,92638.72
2018-03-28T14:07:30.754Z,92627.32
2018-03-28T14:09:59.237Z,92622.23
2018-03-28T14:12:27.702Z,92610.63
2018-03-28T14:14:57.988Z,92609.41
2018-03-28T14:17:26.417Z,92604.45
2018-03-28T14:19:58.370Z,92598.09
2018-03-28T14:22:26.832Z,92594.20
2018-03-28T14:24:55.286Z,92594.70
2018-03-28T14:27:23.740Z,92589.42
2018-03-28T14:29:54.198Z,92579.89
2018-03-28T14:32:22.884Z,92575.81
2018-03-28T14:34:51.313Z,92573.31
2018-03-28T14:37:19.754Z,92563.91
2018-03-28T14:39:48.185Z,92554.50
2018-03-28T14:42:16.633Z,92557.47
2018-03-28T14:44:45.410Z,92551.04
2018-03-28T14:47:16.934Z,92535.80
2018-03-28T14:49:50.532Z,92541.27
2018-03-28T14:52:18.958Z,92540.09
2018-03-28T14:54:47.373Z,92531.83
2018-03-28T14:57:15.940Z,92532.16
2018-03-28T14:59:44.361Z,92531.40
2018-03-28T15:02:12.802Z,92518.06
2018-03-28T15:04:41.251Z,92513.76
2018-03-28T15:07:09.770Z,92513.02
2018-03-28T15:09:38.214Z,92516.72
2018-03-28T15:12:08.725Z,92511.85
2018-03-28T15:14:39.276Z,92506.41
2018-03-28T15:17:07.689Z,92509.09
2018-03-28T15:19:36.165Z,92493.37
2018-03-28T15:22:05.956Z,92495.03
2018-03-28T15:24:34.460Z,92487.28
2018-03-28T15:27:06.579Z,92491.24
2018-03-28T15:29:35.065Z,92484.22
2018-03-28T15:32:05.694Z,92483.54
2018-03-28T15:34:34.189Z,92478.76
2018-03-28T15:37:04.769Z,92475.20
2018-03-28T15:39:33.785Z,92471.37
2018-03-28T15:42:04.159Z,92462.45
2018-03-28T15:44:32.606Z,92461.89
2018-03-28T15:47:03.122Z,92459.14
2018-03-28T15:49:34.266Z,92459.27
2018-03-28T15:52:02.710Z,92460.12
2018-03-28T15:54:32.080Z,92445.06
2018-03-28T15:57:00.532Z,92451.50
2018-03-28T15:59:29.155Z,92450.08
2018-03-28T16:01:57.573Z,92452.91
2018-03-28T16:04:28.170Z,92456.56
2018-03-28T16:06:56.649Z,92449.61
2018-03-28T16:09:27.087Z,92452.49
2018-03-28T16:11:55.694Z,92441.67
2018-03-28T16:14:24.143Z,92439.14
2018-03-28T16:16:52.618Z,92438.91
2018-03-28T16:19:21.228Z,92432.13
2018-03-28T16:21:49.710Z,92427.23
2018-03-28T16:24:18.157Z,92433.56
2018-03-28T16:26:46.637Z,92421.27
2018-03-28T16:29:15.232Z,92433.72
2018-03-28T16:31:43.680Z,92423.17
2018-03-28T16:34:12.122Z,92424.64
2018-03-28T16:36:40.589Z,92429.61
2018-03-28T16:39:09.046Z,92430.67
2018-03-28T16:41:37.476Z,92424.37
2018-03-28T16:44:05.954Z,92420.45
2018-03-28T16:46:34.395Z,92419.94
2018-03-28T16:49:02.989Z,92418.47
2018-03-28T16:51:31.445Z,92418.28
2018-03-28T16:53:59.911Z,92425.39
2018-03-28T16:56:28.442Z,92411.71
2018-03-28T16:58:59.003Z,92413.10
2018-03-28T17:01:27.578Z,92414.66
2018-03-28T17:03:58.171Z,92409.36
2018-03-28T17:06:26.649Z,92412.30
2018-03-28T17:08:55.085Z,92417.27
2018-03-28T17:11:25.693Z,92407.59
2018-03-28T17:13:54.121Z,92406.59
2018-03-28T17:16:22.610Z,92408.91
2018-03-28T17:18:51.112Z,92407.16
2018-03-28T17:21:19.584Z,92405.88
2018-03-28T17:23:48.043Z,92409.68
2018-03-28T17:26:16.705Z,92407.89
2018-03-28T17:28:45.162Z,92410.72
2018-03-28T17:31:13.596Z,92401.66
2018-03-28T17:33:44.210Z,92395.55
2018-03-28T17:36:14.766Z,92400.49
2018-03-28T17:38:43.250Z,92398.09
2018-03-28T17:41:11.716Z,92394.06
2018-03-28T17:43:40.221Z,92393.05
2018-03-28T17:46:08.664Z,92392.56
2018-03-28T17:48:37.388Z,92396.48
2018-03-28T17:51:05.878Z,92391.25
2018-03-28T17:53:34.336Z,92400.58
2018-03-28T17:56:04.310Z,92403.27
2018-03-28T17:58:35.483Z,92401.45
2018-03-28T18:01:04.114Z,92410.65
2018-03-28T18:03:34.477Z,92405.50
2018-03-28T18:06:05.498Z,92405.59
2018-03-28T18:08:33.966Z,92412.23
2018-03-28T18:11:04.619Z,92418.02
2018-03-28T18:13:35.333Z,92404.25
2018-03-28T18:16:04.813Z,92407.34
2018-03-28T18:18:33.454Z,92415.14
2018-03-28T18:21:04.123Z,92416.87
2018-03-28T18:23:32.626Z,92420.64
2018-03-28T18:26:01.749Z,92426.01
2018-03-28T18:28:30.376Z,92423.34
2018-03-28T18:31:00.598Z,92433.75
2018-03-28T18:33:29.392Z,92437.67
2018-03-28T18:36:00.085Z,92443.71
2018-03-28T18:38:29.046Z,92451.55
2018-03-28T18:41:00.643Z,92458.19
2018-03-28T18:43:29.129Z,92467.55
2018-03-28T18:45:57.602Z,92468.44
2018-03-28T18:48:26.094Z,92470.89
2018-03-28T18:50:54.573Z,92473.03
2018-03-28T18:53:23.026Z,92480.17
2018-03-28T18:55:51.526Z,92487.37
2018-03-28T18:58:20.005Z,92485.47
2018-03-28T19:00:48.492Z,92492.41
2018-03-28T19:03:16.966Z,92495.27
2018-03-28T19:05:47.159Z,92513.47
2018-03-28T19:08:15.645Z,92520.81
2018-03-28T19:10:44.174Z,92516.71
2018-03-28T19:13:12.669Z,92527.38
2018-03-28T19:15:43.301Z,92526.72
2018-03-28T19:18:11.822Z,92526.41
2018-03-28T19:20:42.103Z,92532.05
2018-03-28T19:23:10.801Z,92521.45
2018-03-28T19:25:39.247Z,92521.09
2018-03-28T19:28:09.890Z,92520.49
2018-03-28T19:30:40.447Z,92520.09
2018-03-28T19:33:08.969Z,92519.14
2018-03-28T19:35:37.450Z,92518.48
2018-03-28T19:38:05.959Z,92515.27
2018-03-28T19:40:34.473Z,92521.61
2018-03-28T19:43:02.929Z,92518.64
2018-03-28T19:45:31.407Z,92509.73
2018-03-28T19:47:59.890Z,92509.45
2018-03-28T19:50:28.613Z,92508.55
2018-03-28T19:52:57.098Z,92507.65
2018-03-28T19:55:25.582Z,92508.30
2018-03-28T19:57:54.071Z,92506.07
2018-03-28T20:00:22.564Z,92502.60
2018-03-28T20:02:52.853Z,92497.94
2018-03-28T20:05:23.412Z,92498.69
2018-03-28T20:07:51.888Z,92498.38
2018-03-28T20:10:20.917Z,92497.44
2018-03-28T20:12:51.520Z,92504.06
2018-03-28T20:15:20.040Z,92498.23
2018-03-28T20:17:48.526Z,92507.07
2018-03-28T20:20:19.082Z,92506.68
2018-03-28T20:22:47.600Z,92506.22
2018-03-28T20:25:16.183Z,92504.56
2018-03-28T20:27:47.091Z,92497.00
2018-03-28T20:30:15.625Z,92507.00
2018-03-28T20:32:44.128Z,92499.58
2018-03-28T20:35:12.592Z,92504.96
2018-03-28T20:37:41.144Z,92500.24
2018-03-28T20:40:09.672Z,92497.72
2018-03-28T20:42:38.244Z,92495.19
2018-03-28T20:45:06.729Z,92497.41
2018-03-28T20:47:33.375Z,92497.61
2018-03-28T20:50:00.057Z,92501.03
2018-03-28T20:52:27.460Z,92503.34
2018-03-28T20:54:54.108Z,92507.05
2018-03-28T20:57:20.723Z,92513.89
2018-03-28T20:59:47.348Z,92513.70
2018-03-28T21:02:13.938Z,92518.52
2018-03-28T21:04:41.590Z,92516.50
2018-03-28T21:07:08.178Z,92521.57
2018-03-28T21:09:34.824Z,92535.77
2018-03-28T21:12:01.475Z,92548.45
2018-03-28T21:14:28.260Z,92558.61
2018-03-28T21:16:54.858Z,92591.27
2018-03-28T21:19:21.469Z,92597.09
2018-03-28T21:21:48.097Z,92611.99
2018-03-28T21:24:15.438Z,92625.91
2018-03-28T21:26:42.819Z,92628.17
2018-03-28T21:29:09.501Z,92623.14
2018-03-28T21:31:36.157Z,92629.83
2018-03-28T21:34:02.783Z,92632.03
2018-03-28T21:36:30.185Z,92626.45
2018-03-28T21:38:57.519Z,92627.09
2018-03-28T21:41:25.531Z,92620.27
2018-03-28T21:43:53.074Z,92620.25
2018-03-28T21:46:19.736Z,92615.56
2018-03-28T21:48:46.368Z,92614.89
2018-03-28T21:51:12.959Z,92626.53
2018-03-28T21:53:40.550Z,92640.61
2018-03-28T21:56:08.159Z,92636.98
2018-03-28T21:58:34.863Z,92635.58
2018-03-28T22:01:01.460Z,92649.83
2018-03-28T22:03:28.155Z,92641.81
2018-03-28T22:05:54.738Z,92635.20
2018-03-28T22:08:22.094Z,92647.21
2018-03-28T22:10:48.776Z,92642.81
2018-03-28T22:13:15.406Z,92657.86
2018-03-28T22:15:42.050Z,92652.65
2018-03-28T22:18:08.649Z,92652.02
2018-03-28T22:20:35.241Z,92660.07
2018-03-28T22:23:02.787Z,92663.58
2018-03-28T22:25:29.418Z,92666.48
2018-03-28T22:27:56.027Z,92665.67
2018-03-28T22:30:22.686Z,92664.97
2018-03-28T22:32:49.336Z,92666.89
2018-03-28T22:35:15.938Z,92663.88
2018-03-28T22:37:42.522Z,92664.67
2018-03-28T22:40:09.113Z,92670.48
2018-03-28T22:42:35.692Z,92666.88
2018-03-28T22:45:02.353Z,92671.09
2018-03-28T22:47:28.970Z,92676.91
2018-03-28T22:49:55.560Z,92671.88
2018-03-28T22:52:22.180Z,92680.72
2018-03-28T22:54:48.789Z,92678.02
2018-03-28T22:57:15.480Z,92674.90
2018-03-28T22:59:42.068Z,92681.53
2018-03-28T23:02:08.702Z,92688.73
2018-03-28T23:04:36.171Z,92685.74
2018-03-28T23:07:03.528Z,92687.84
2018-03-28T23:09:30.932Z,92680.53
2018-03-28T23:11:57.565Z,92691.53
2018-03-28T23:14:24.166Z,92685.72
2018-03-28T23:16:50.900Z,92695.66
2018-03-28T23:19:17.514Z,92693.75
2018-03-28T23:21:44.136Z,92697.16
2018-03-28T23:24:10.789Z,92709.13
2018-03-28T23:26:37.432Z,92713.28
2018-03-28T23:29:04.162Z,92719.80
2018-03-28T23:31:30.759Z,92720.58
2018-03-28T23:33:57.423Z,92715.78
2018-03-28T23:36:24.561Z,92720.76
2018-03-28T23:38:51.218Z,92717.98
2018-03-28T23:41:17.810Z,92727.72
2018-03-28T23:43:44.398Z,92721.98
2018-03-28T23:46:10.977Z,92735.80
2018-03-28T23:48:38.394Z,92731.19
2018-03-28T23:51:05.082Z,92741.11
2018-03-28T23:53:31.715Z,92734.78
2018-03-28T23:55:58.347Z,92736.80
2018-03-28T23:58:24.938Z,92754.54
